Time;durP1;ratioP1;P1;durP2;ratioP2;P2;SDS_P1;SDS_P2;PMS_P1;PMS_P2;Temp;Humidity;BMP_temperature;BMP_pressure;BME280_temperature;BME280_humidity;BME280_pressure;Samples;Min_cycle;Max_cycle;Signal;HPM_P1;HPM_P2
2022/12/12 00:02:20;;;;;;;31.63;16.50;;;-1.00;99.90;;;;;;5226149;28;20206;-52
2022/12/12 00:04:50;;;;;;;41.57;18.30;;;-1.00;99.90;;;;;;5244169;28;20179;-52
2022/12/12 00:07:21;;;;;;;36.50;16.60;;;-1.10;99.90;;;;;;5244535;28;20186;-50
2022/12/12 00:09:51;;;;;;;40.77;18.47;;;-1.00;99.90;;;;;;5244608;28;20317;-50
2022/12/12 00:12:22;;;;;;;37.30;17.67;;;-1.10;99.90;;;;;;5255245;28;20205;-51
2022/12/12 00:14:52;;;;;;;34.60;17.80;;;-1.00;99.90;;;;;;5246175;28;20190;-52
2022/12/12 00:17:23;;;;;;;31.27;17.63;;;-1.10;99.90;;;;;;5246152;28;20710;-49
2022/12/12 00:19:54;;;;;;;30.77;16.67;;;-1.00;99.90;;;;;;5228416;28;20575;-52
2022/12/12 00:22:24;;;;;;;35.13;18.00;;;-1.00;99.90;;;;;;5225709;28;20186;-50
2022/12/12 00:24:55;;;;;;;30.47;17.57;;;-1.00;99.90;;;;;;5244644;28;20186;-49
2022/12/12 00:27:25;;;;;;;35.23;17.60;;;-1.00;99.90;;;;;;5242372;28;20186;-50
2022/12/12 00:29:56;;;;;;;35.20;16.63;;;-0.90;99.90;;;;;;5207704;28;20218;-49
2022/12/12 00:32:27;;;;;;;39.60;17.80;;;-1.10;99.90;;;;;;5232769;28;20179;-49
2022/12/12 00:34:58;;;;;;;38.10;16.70;;;-1.10;99.90;;;;;;5248092;28;20179;-50
2022/12/12 00:37:28;;;;;;;33.17;17.13;;;-1.20;99.90;;;;;;5245777;28;20471;-51
2022/12/12 00:39:59;;;;;;;41.43;17.07;;;-1.30;99.90;;;;;;5240830;28;20260;-54
2022/12/12 00:42:30;;;;;;;43.03;18.10;;;-1.20;99.90;;;;;;5246665;28;20266;-49
2022/12/12 00:45:01;;;;;;;35.80;18.10;;;-1.20;99.90;;;;;;5251653;28;20170;-50
2022/12/12 00:47:31;;;;;;;39.73;17.20;;;-1.30;99.90;;;;;;5248829;28;20180;-50
2022/12/12 00:50:03;;;;;;;36.57;17.03;;;-1.20;99.90;;;;;;5240546;28;20457;-49
2022/12/12 00:52:33;;;;;;;35.53;17.77;;;-1.10;99.90;;;;;;5230320;28;20205;-51
2022/12/12 00:55:04;;;;;;;43.70;16.60;;;-1.10;99.90;;;;;;5232824;28;20447;-51
2022/12/12 00:57:35;;;;;;;36.53;18.10;;;-1.00;99.90;;;;;;5248808;28;20649;-49
2022/12/12 01:00:08;;;;;;;38.77;18.27;;;-1.00;99.90;;;;;;5244541;28;20460;-51
2022/12/12 01:02:38;;;;;;;36.70;17.40;;;-1.00;99.90;;;;;;5226043;28;20192;-49
2022/12/12 01:05:10;;;;;;;36.73;17.03;;;-1.00;99.90;;;;;;5247533;28;20985;-49
2022/12/12 01:07:41;;;;;;;34.30;17.07;;;-1.00;99.90;;;;;;5247147;28;20179;-50
2022/12/12 01:10:11;;;;;;;34.07;17.67;;;-1.00;99.90;;;;;;5243717;28;20446;-51
2022/12/12 01:12:42;;;;;;;41.97;17.87;;;-1.00;99.90;;;;;;5230849;28;20182;-50
2022/12/12 01:15:12;;;;;;;39.33;18.60;;;-1.00;99.90;;;;;;5242580;28;20693;-49
2022/12/12 01:17:43;;;;;;;36.80;18.40;;;-1.00;99.90;;;;;;5240186;28;20207;-51
2022/12/12 01:20:18;;;;;;;35.67;16.73;;;-1.00;99.90;;;;;;5248518;28;20316;-50
2022/12/12 01:22:48;;;;;;;33.40;17.80;;;-1.00;99.90;;;;;;5229381;28;20228;-49
2022/12/12 01:25:19;;;;;;;46.50;17.77;;;-0.90;99.90;;;;;;5249179;28;20413;-52
2022/12/12 01:27:50;;;;;;;37.63;17.53;;;-0.90;99.90;;;;;;5247932;28;20453;-51
2022/12/12 01:30:22;;;;;;;31.40;16.90;;;-1.00;99.90;;;;;;5229485;28;20488;-50
2022/12/12 01:32:53;;;;;;;39.77;16.77;;;-1.00;99.90;;;;;;5230614;28;20187;-52
2022/12/12 01:35:24;;;;;;;40.47;16.40;;;-0.90;99.90;;;;;;5242187;28;20502;-52
2022/12/12 01:37:55;;;;;;;36.60;17.30;;;-0.90;99.90;;;;;;5242590;28;20477;-50
2022/12/12 01:40:28;;;;;;;45.80;17.97;;;-0.90;99.90;;;;;;5248439;28;20685;-50
2022/12/12 01:42:59;;;;;;;38.50;18.37;;;-0.90;99.90;;;;;;5247031;28;20658;-50
2022/12/12 01:45:51;;;;;;;40.57;17.27;;;-0.80;99.90;;;;;;5232170;28;20470;-50
2022/12/12 01:48:26;;;;;;;29.30;17.50;;;-0.90;99.90;;;;;;5235934;28;20259;-48
2022/12/12 01:51:01;;;;;;;37.20;18.23;;;-0.80;99.90;;;;;;5218309;28;20798;-49
2022/12/12 01:53:33;;;;;;;30.13;15.40;;;-0.80;99.90;;;;;;5235691;28;20506;-50
2022/12/12 01:56:11;;;;;;;38.40;17.43;;;-0.80;99.90;;;;;;5230570;28;20435;-50
2022/12/12 01:58:44;;;;;;;37.63;16.70;;;-0.70;99.90;;;;;;5247854;28;20480;-51
2022/12/12 02:01:17;;;;;;;35.83;15.30;;;-0.70;99.90;;;;;;5245737;28;20458;-52
2022/12/12 02:03:48;;;;;;;37.97;18.10;;;-0.70;99.90;;;;;;5242203;28;20574;-49
2022/12/12 02:06:23;;;;;;;37.83;17.53;;;-0.60;99.90;;;;;;5250840;28;20449;-51
2022/12/12 02:08:58;;;;;;;36.67;15.60;;;-0.70;99.90;;;;;;5239725;28;20494;-49
2022/12/12 02:11:31;;;;;;;36.10;16.07;;;-0.80;99.90;;;;;;5237334;28;20498;-49
2022/12/12 02:14:01;;;;;;;37.00;17.27;;;-0.80;99.90;;;;;;5232750;28;20547;-48
2022/12/12 02:17:04;;;;;;;42.10;17.47;;;-0.90;99.90;;;;;;5246087;28;20555;-50
2022/12/12 02:20:03;;;;;;;33.50;15.77;;;-0.90;99.90;;;;;;5231996;28;20201;-49
2022/12/12 02:23:10;;;;;;;34.53;16.37;;;-0.80;99.90;;;;;;5242949;28;20876;-50
2022/12/12 02:26:00;;;;;;;35.23;16.50;;;-0.70;99.90;;;;;;5224112;28;20521;-50
2022/12/12 02:28:59;;;;;;;36.20;16.97;;;-0.60;99.90;;;;;;5248721;28;20421;-51
2022/12/12 02:31:47;;;;;;;34.50;16.47;;;-0.60;99.90;;;;;;5254662;22;20502;-54
2022/12/12 02:34:25;;;;;;;47.80;19.20;;;-0.60;99.90;;;;;;5279135;27;20775;-52
2022/12/12 02:36:58;;;;;;;42.73;18.50;;;-0.50;99.90;;;;;;5290230;27;20473;-50
2022/12/12 02:39:38;;;;;;;40.73;16.07;;;-0.60;99.90;;;;;;5272755;28;20428;-52
2022/12/12 02:42:26;;;;;;;41.73;18.63;;;-0.60;99.90;;;;;;5256691;28;20544;-52
2022/12/12 02:45:03;;;;;;;43.10;18.13;;;-0.60;99.90;;;;;;5266700;28;20784;-50
2022/12/12 02:47:42;;;;;;;42.50;17.83;;;-0.50;99.90;;;;;;5264672;28;20492;-52
2022/12/12 02:50:19;;;;;;;34.00;16.70;;;-0.50;99.90;;;;;;5254401;28;20452;-51
2022/12/12 02:52:50;;;;;;;43.10;17.40;;;-0.60;99.90;;;;;;5263709;28;20870;-51
2022/12/12 02:55:21;;;;;;;35.53;16.87;;;-0.50;99.90;;;;;;5256556;28;20519;-51
2022/12/12 02:57:53;;;;;;;46.77;18.53;;;-0.40;99.90;;;;;;5257830;28;20233;-52
2022/12/12 03:00:24;;;;;;;40.20;18.67;;;-0.50;99.90;;;;;;5254944;28;20203;-51
2022/12/12 03:09:33;;;;;;;34.40;15.83;;;-0.40;99.90;;;;;;5252653;28;20432;-51
2022/12/12 03:12:15;;;;;;;37.67;17.03;;;-0.50;99.90;;;;;;5253509;28;20555;-53
2022/12/12 03:14:59;;;;;;;43.03;15.50;;;-0.40;99.90;;;;;;5266941;28;20431;-52
2022/12/12 03:17:41;;;;;;;46.87;17.23;;;-0.50;99.90;;;;;;5283157;28;20465;-51
2022/12/12 03:20:21;;;;;;;43.50;17.93;;;-0.40;99.90;;;;;;5263523;28;20455;-52
2022/12/12 03:23:09;;;;;;;52.03;17.93;;;-0.40;99.90;;;;;;5260608;28;20418;-51
2022/12/12 03:25:50;;;;;;;44.50;16.67;;;-0.40;99.90;;;;;;5262861;28;20437;-52
2022/12/12 03:28:42;;;;;;;41.60;17.80;;;-0.40;99.90;;;;;;5259857;28;20431;-54
2022/12/12 03:31:15;;;;;;;41.80;17.60;;;-0.40;99.90;;;;;;5264432;28;20962;-51
2022/12/12 03:33:53;;;;;;;44.30;17.73;;;-0.40;99.90;;;;;;5256484;28;20429;-52
2022/12/12 03:36:29;;;;;;;40.33;17.30;;;-0.30;99.90;;;;;;5265782;28;20451;-51
2022/12/12 03:39:09;;;;;;;42.40;15.67;;;-0.30;99.90;;;;;;5263101;28;20498;-52
2022/12/12 03:41:55;;;;;;;48.83;17.53;;;-0.30;99.90;;;;;;5258211;28;20973;-51
2022/12/12 03:44:35;;;;;;;45.10;18.30;;;-0.20;99.90;;;;;;5264222;28;20489;-51
2022/12/12 03:47:16;;;;;;;37.50;17.40;;;-0.30;99.90;;;;;;5268721;28;20450;-51
2022/12/12 03:50:04;;;;;;;36.43;16.20;;;-0.20;99.90;;;;;;5265229;28;20505;-53
2022/12/12 03:52:47;;;;;;;31.93;16.37;;;-0.20;99.90;;;;;;5250732;28;20409;-53
2022/12/12 03:55:37;;;;;;;33.77;15.20;;;-0.20;99.90;;;;;;5268268;28;20520;-51
2022/12/12 03:58:54;;;;;;;39.47;17.07;;;-0.20;99.90;;;;;;5264380;28;20463;-51
2022/12/12 04:01:34;;;;;;;29.07;15.17;;;-0.20;99.90;;;;;;5246002;28;20464;-51
2022/12/12 04:04:37;;;;;;;38.57;15.70;;;-0.20;99.90;;;;;;5255577;28;20825;-53
2022/12/12 04:07:21;;;;;;;33.43;15.80;;;-0.20;99.90;;;;;;5226456;28;20451;-51
2022/12/12 04:13:19;;;;;;;39.07;15.73;;;-0.10;99.90;;;;;;5267112;28;20465;-50
2022/12/12 04:16:00;;;;;;;38.37;14.67;;;-0.10;99.90;;;;;;5251923;28;20845;-52
2022/12/12 04:18:39;;;;;;;28.83;13.83;;;-0.10;99.90;;;;;;5254547;28;20466;-53
2022/12/12 04:24:34;;;;;;;24.10;14.73;;;0.00;99.90;;;;;;5263996;28;20446;-53
2022/12/12 04:27:19;;;;;;;31.90;15.40;;;0.00;99.90;;;;;;5257711;28;20482;-52
2022/12/12 04:30:03;;;;;;;29.40;14.10;;;0.00;99.90;;;;;;5269320;28;20887;-51
2022/12/12 04:33:12;;;;;;;31.40;14.07;;;0.10;99.90;;;;;;5262705;28;20491;-53
2022/12/12 04:35:48;;;;;;;35.80;14.70;;;0.00;99.90;;;;;;5264036;28;20788;-52
2022/12/12 04:38:22;;;;;;;33.63;14.50;;;0.00;99.90;;;;;;5267907;28;20555;-51
2022/12/12 04:40:56;;;;;;;27.77;13.67;;;0.00;99.90;;;;;;5255945;28;20817;-51
2022/12/12 04:43:34;;;;;;;28.50;13.20;;;0.00;99.90;;;;;;5261987;28;20564;-53
2022/12/12 04:46:09;;;;;;;25.97;13.37;;;0.10;99.90;;;;;;5262071;28;20442;-52
2022/12/12 04:48:51;;;;;;;33.10;13.57;;;0.10;99.90;;;;;;5267799;28;20792;-51
2022/12/12 04:51:31;;;;;;;33.20;15.00;;;0.10;99.90;;;;;;5250468;28;20550;-50
2022/12/12 04:54:24;;;;;;;30.30;14.07;;;0.10;99.90;;;;;;5265111;28;20444;-52
2022/12/12 04:56:59;;;;;;;28.10;13.23;;;0.10;99.90;;;;;;5274671;28;20512;-52
2022/12/12 04:59:30;;;;;;;20.60;12.13;;;0.10;99.90;;;;;;5254611;28;20527;-51
2022/12/12 05:02:10;;;;;;;26.33;12.13;;;0.10;99.90;;;;;;5255694;28;20536;-51
2022/12/12 05:04:49;;;;;;;24.20;13.30;;;0.10;99.90;;;;;;5255647;28;20217;-50
2022/12/12 05:07:30;;;;;;;26.27;13.13;;;0.00;99.90;;;;;;5257510;28;20432;-49
2022/12/12 05:10:01;;;;;;;27.70;12.10;;;0.00;99.90;;;;;;5263984;28;20538;-54
2022/12/12 05:12:41;;;;;;;22.43;12.70;;;0.10;99.90;;;;;;5255211;28;20531;-50
2022/12/12 05:15:13;;;;;;;26.73;11.40;;;0.10;99.90;;;;;;5270397;28;21007;-51
2022/12/12 05:17:47;;;;;;;26.43;11.30;;;0.00;99.90;;;;;;5267710;28;20457;-51
2022/12/12 05:20:17;;;;;;;16.10;9.70;;;-0.10;99.90;;;;;;5265859;28;20458;-51
2022/12/12 05:22:48;;;;;;;20.73;10.53;;;-0.10;99.90;;;;;;5259697;28;20963;-52
2022/12/12 05:25:19;;;;;;;16.27;9.70;;;0.00;99.90;;;;;;5265758;28;20183;-51
2022/12/12 05:27:49;;;;;;;15.97;9.13;;;0.00;99.90;;;;;;5258724;28;20200;-53
2022/12/12 05:30:20;;;;;;;11.53;8.33;;;0.00;99.90;;;;;;5262638;28;20303;-51
2022/12/12 05:32:51;;;;;;;12.67;8.07;;;0.10;99.90;;;;;;5266185;28;20189;-51
2022/12/12 05:35:22;;;;;;;14.67;8.20;;;0.10;99.90;;;;;;5263849;28;21070;-51
2022/12/12 05:37:53;;;;;;;15.70;7.80;;;0.00;99.90;;;;;;5249784;28;20213;-51
2022/12/12 05:40:23;;;;;;;13.47;8.23;;;0.00;99.90;;;;;;5261620;28;20491;-51
2022/12/12 05:42:54;;;;;;;17.90;10.43;;;0.00;99.90;;;;;;5256884;28;20184;-52
2022/12/12 05:45:24;;;;;;;20.87;9.80;;;0.10;99.90;;;;;;5261084;28;20188;-51
2022/12/12 05:47:55;;;;;;;11.90;7.50;;;0.10;99.90;;;;;;5268005;28;20228;-51
2022/12/12 05:50:26;;;;;;;9.77;7.10;;;0.10;99.90;;;;;;5268228;28;20942;-50
2022/12/12 05:52:56;;;;;;;8.10;7.03;;;0.10;99.90;;;;;;5256503;28;20273;-51
2022/12/12 05:55:27;;;;;;;11.63;7.70;;;0.20;99.90;;;;;;5260225;28;20235;-50
2022/12/12 05:57:57;;;;;;;8.37;6.80;;;0.10;99.90;;;;;;5263988;28;20216;-52
2022/12/12 06:00:28;;;;;;;9.57;7.17;;;0.10;99.90;;;;;;5258904;28;20206;-51
2022/12/12 06:02:59;;;;;;;13.13;6.90;;;0.10;99.90;;;;;;5251788;28;21027;-53
2022/12/12 06:05:30;;;;;;;13.33;7.63;;;0.00;99.90;;;;;;5264692;28;20181;-52
2022/12/12 06:08:00;;;;;;;9.37;7.30;;;0.00;99.90;;;;;;5260995;28;20291;-53
2022/12/12 06:10:31;;;;;;;9.23;5.97;;;0.00;99.90;;;;;;5266967;28;20978;-50
2022/12/12 06:13:02;;;;;;;8.43;7.20;;;0.10;99.90;;;;;;5259501;28;20197;-55
2022/12/12 06:15:33;;;;;;;8.47;7.17;;;0.00;99.90;;;;;;5261679;28;20184;-52
2022/12/12 06:18:03;;;;;;;12.40;6.80;;;0.10;99.90;;;;;;5264315;28;20467;-53
2022/12/12 06:20:35;;;;;;;7.67;6.43;;;0.10;99.90;;;;;;5263481;28;20200;-53
2022/12/12 06:23:05;;;;;;;6.33;5.80;;;0.00;99.90;;;;;;5264452;28;20182;-53
2022/12/12 06:25:36;;;;;;;8.23;6.00;;;0.10;99.90;;;;;;5267148;28;20459;-54
2022/12/12 06:28:07;;;;;;;8.23;6.57;;;0.00;99.90;;;;;;5263577;28;20285;-53
2022/12/12 06:30:38;;;;;;;7.07;5.77;;;0.00;99.90;;;;;;5251461;28;20723;-56
2022/12/12 06:33:08;;;;;;;9.20;6.23;;;0.10;99.90;;;;;;5246239;28;20573;-52
2022/12/12 06:35:39;;;;;;;9.60;6.87;;;0.00;99.90;;;;;;5248695;28;20435;-53
2022/12/12 06:38:10;;;;;;;6.50;5.87;;;0.00;99.90;;;;;;5252469;28;20213;-53
2022/12/12 06:40:40;;;;;;;7.13;5.60;;;0.00;99.90;;;;;;5249121;28;20299;-53
2022/12/12 06:43:11;;;;;;;8.87;6.50;;;0.00;99.90;;;;;;5245956;28;20281;-53
2022/12/12 06:45:41;;;;;;;7.53;5.93;;;-0.10;99.90;;;;;;5248862;28;20225;-51
2022/12/12 06:48:12;;;;;;;7.20;6.27;;;0.00;99.90;;;;;;5246632;28;20194;-55
2022/12/12 06:50:44;;;;;;;6.30;5.30;;;0.00;99.90;;;;;;5246159;28;20317;-52
2022/12/12 06:53:15;;;;;;;9.90;6.53;;;0.00;99.90;;;;;;5247788;28;20283;-55
2022/12/12 06:55:46;;;;;;;8.80;5.03;;;0.00;99.90;;;;;;5249443;28;20467;-50
2022/12/12 06:58:16;;;;;;;6.77;5.93;;;0.20;99.90;;;;;;5248178;28;20554;-51
2022/12/12 07:00:53;;;;;;;6.30;5.80;;;0.10;99.90;;;;;;5248904;28;20286;-51
2022/12/12 07:03:24;;;;;;;7.33;5.80;;;0.10;99.90;;;;;;5251915;28;20636;-51
2022/12/12 07:05:54;;;;;;;6.83;5.90;;;0.10;99.90;;;;;;5246629;28;20446;-52
2022/12/12 07:08:27;;;;;;;8.17;6.57;;;0.00;99.90;;;;;;5246263;28;20299;-54
2022/12/12 07:11:12;;;;;;;7.30;6.33;;;0.00;99.90;;;;;;5263158;28;20339;-52
2022/12/12 07:13:43;;;;;;;6.90;6.23;;;-0.10;99.90;;;;;;5248239;28;20437;-52
2022/12/12 07:16:14;;;;;;;7.27;6.40;;;0.00;99.90;;;;;;5262388;28;20784;-52
2022/12/12 07:18:46;;;;;;;9.70;6.43;;;0.00;99.90;;;;;;5249824;28;20181;-55
2022/12/12 07:21:18;;;;;;;6.67;6.00;;;0.00;99.90;;;;;;5248393;28;20506;-55
2022/12/12 07:23:49;;;;;;;10.13;6.80;;;0.00;99.90;;;;;;5249920;28;20943;-51
2022/12/12 07:26:21;;;;;;;7.20;5.90;;;-0.10;99.90;;;;;;5255788;28;20472;-52
2022/12/12 07:28:52;;;;;;;8.13;6.00;;;-0.10;99.90;;;;;;5245653;28;20193;-53
2022/12/12 07:31:25;;;;;;;12.50;6.80;;;0.00;99.90;;;;;;5248420;28;20804;-53
2022/12/12 07:33:55;;;;;;;7.13;6.20;;;-0.10;99.90;;;;;;5246437;28;20196;-55
2022/12/12 07:36:26;;;;;;;6.53;5.90;;;-0.10;99.90;;;;;;5241500;28;20427;-51
2022/12/12 07:38:57;;;;;;;6.50;5.70;;;-0.10;99.90;;;;;;5245294;28;20592;-52
2022/12/12 07:41:27;;;;;;;6.33;5.70;;;-0.10;99.90;;;;;;5233933;28;20253;-53
2022/12/12 07:43:58;;;;;;;14.10;6.77;;;-0.10;99.90;;;;;;5246890;28;20190;-56
2022/12/12 07:46:29;;;;;;;8.70;6.40;;;0.00;99.90;;;;;;5249747;28;20244;-53
2022/12/12 07:48:59;;;;;;;7.80;7.00;;;-0.10;99.90;;;;;;5249763;28;20478;-54
2022/12/12 07:51:30;;;;;;;6.10;5.50;;;-0.10;99.90;;;;;;5255099;28;20212;-57
2022/12/12 07:54:01;;;;;;;10.43;7.07;;;0.10;99.90;;;;;;5256751;28;20221;-52
2022/12/12 07:56:31;;;;;;;7.17;6.20;;;0.00;99.90;;;;;;5254173;28;20209;-54
2022/12/12 07:59:02;;;;;;;7.97;6.37;;;-0.10;99.90;;;;;;5250875;28;20189;-55
2022/12/12 08:01:33;;;;;;;6.83;6.10;;;-0.10;99.90;;;;;;5246524;28;20217;-56
2022/12/12 08:04:04;;;;;;;7.20;6.30;;;-0.10;99.90;;;;;;5255223;28;20316;-52
2022/12/12 08:06:34;;;;;;;7.30;5.80;;;0.00;99.90;;;;;;5258306;28;20639;-52
2022/12/12 08:09:05;;;;;;;6.33;5.73;;;0.00;99.90;;;;;;5255250;28;20469;-51
2022/12/12 08:11:36;;;;;;;5.90;5.30;;;0.10;99.90;;;;;;5256102;28;20295;-55
2022/12/12 08:14:07;;;;;;;6.30;5.70;;;0.00;99.90;;;;;;5251064;28;20216;-52
2022/12/12 08:16:38;;;;;;;7.47;6.10;;;0.10;99.90;;;;;;5263048;28;20204;-52
2022/12/12 08:19:08;;;;;;;8.03;5.90;;;0.10;99.90;;;;;;5256698;28;20439;-53
2022/12/12 08:21:39;;;;;;;5.97;5.50;;;0.20;99.90;;;;;;5255935;28;20284;-52
2022/12/12 08:24:14;;;;;;;6.23;5.00;;;0.20;99.90;;;;;;5251445;28;20188;-53
2022/12/12 08:26:44;;;;;;;7.03;6.33;;;0.20;99.90;;;;;;5265469;28;20189;-55
2022/12/12 08:29:15;;;;;;;7.43;5.67;;;0.10;99.90;;;;;;5250401;28;20445;-53
2022/12/12 08:31:46;;;;;;;6.93;6.23;;;0.10;99.90;;;;;;5262216;22;20229;-53
2022/12/12 08:34:17;;;;;;;6.53;5.90;;;-0.10;99.90;;;;;;5261074;28;20175;-53
2022/12/12 08:36:48;;;;;;;9.00;5.87;;;0.00;99.90;;;;;;5256688;28;20206;-52
2022/12/12 08:39:18;;;;;;;6.40;5.33;;;-0.10;99.90;;;;;;5246556;28;20730;-53
2022/12/12 08:41:49;;;;;;;6.43;5.30;;;-0.10;99.90;;;;;;5233080;28;20454;-51
2022/12/12 08:44:20;;;;;;;6.20;5.10;;;0.00;99.90;;;;;;5226688;28;20181;-50
2022/12/12 08:46:51;;;;;;;5.17;4.67;;;0.00;99.90;;;;;;5225878;28;23155;-50
2022/12/12 08:49:21;;;;;;;5.33;4.30;;;0.00;99.90;;;;;;5226831;28;20440;-53
2022/12/12 08:51:52;;;;;;;5.93;5.33;;;0.00;99.90;;;;;;5230672;28;20207;-51
2022/12/12 08:54:24;;;;;;;6.40;5.80;;;-0.10;99.90;;;;;;5227391;28;20197;-52
2022/12/12 08:56:54;;;;;;;5.07;4.63;;;-0.10;99.90;;;;;;5226210;28;20247;-51
2022/12/12 08:59:25;;;;;;;7.50;6.30;;;-0.10;99.90;;;;;;5230824;28;20495;-49
2022/12/12 09:01:56;;;;;;;5.83;4.80;;;-0.10;99.90;;;;;;5232478;28;20195;-49
2022/12/12 09:04:26;;;;;;;5.20;4.70;;;-0.10;99.90;;;;;;5237538;28;20182;-50
2022/12/12 09:06:57;;;;;;;5.73;4.57;;;-0.10;99.90;;;;;;5221488;28;20527;-48
2022/12/12 09:09:27;;;;;;;5.17;4.37;;;0.00;99.90;;;;;;5222657;28;20195;-50
2022/12/12 09:11:58;;;;;;;5.00;4.47;;;0.00;99.90;;;;;;5223828;28;20679;-51
2022/12/12 09:14:29;;;;;;;5.23;4.73;;;0.00;99.90;;;;;;5223657;28;20185;-51
2022/12/12 09:17:00;;;;;;;6.70;4.00;;;0.20;99.90;;;;;;5226400;28;20463;-51
2022/12/12 09:19:30;;;;;;;7.13;5.10;;;0.20;99.90;;;;;;5222948;28;20815;-53
2022/12/12 09:22:02;;;;;;;4.93;4.53;;;0.10;99.90;;;;;;5229512;28;20468;-52
2022/12/12 09:24:32;;;;;;;5.53;4.70;;;0.20;99.90;;;;;;5228473;28;20636;-52
2022/12/12 09:27:03;;;;;;;6.00;5.00;;;0.10;99.90;;;;;;5224794;28;20495;-52
2022/12/12 09:29:34;;;;;;;7.53;5.00;;;0.10;99.90;;;;;;5225972;28;20602;-51
2022/12/12 09:32:05;;;;;;;6.10;5.50;;;0.20;99.90;;;;;;5239457;28;20216;-50
2022/12/12 09:34:37;;;;;;;5.20;4.70;;;0.20;99.90;;;;;;5225981;28;20190;-49
2022/12/12 09:37:07;;;;;;;5.33;4.80;;;0.20;99.90;;;;;;5225469;28;20481;-52
2022/12/12 09:39:38;;;;;;;5.03;4.50;;;0.30;99.90;;;;;;5227034;28;20968;-51
2022/12/12 09:42:17;;;;;;;4.60;4.27;;;0.30;99.90;;;;;;5232186;28;20210;-51
2022/12/12 09:44:52;;;;;;;6.90;4.60;;;0.20;99.90;;;;;;5227589;28;21845;-50
2022/12/12 09:47:43;;;;;;;6.43;4.70;;;0.00;99.90;;;;;;5229816;28;20525;-50
2022/12/12 09:50:36;;;;;;;4.20;3.90;;;-0.10;99.90;;;;;;5225024;28;20437;-51
2022/12/12 09:53:14;;;;;;;5.17;4.77;;;-0.10;99.90;;;;;;5228764;28;20532;-49
2022/12/12 09:55:59;;;;;;;5.87;4.63;;;-0.10;99.90;;;;;;5225487;28;20532;-53
2022/12/12 09:58:38;;;;;;;4.77;3.97;;;0.10;99.90;;;;;;5230564;28;20470;-51
2022/12/12 10:01:23;;;;;;;4.30;4.00;;;-0.10;99.90;;;;;;5232128;28;20979;-52
2022/12/12 10:04:16;;;;;;;4.70;4.40;;;-0.10;99.90;;;;;;5231125;28;20509;-52
2022/12/12 10:07:09;;;;;;;6.53;5.33;;;-0.20;99.90;;;;;;5226509;28;20509;-53
2022/12/12 10:10:16;;;;;;;9.30;4.90;;;-0.10;99.90;;;;;;5222047;28;20454;-52
2022/12/12 10:12:48;;;;;;;5.97;4.87;;;-0.10;99.90;;;;;;5235362;28;20440;-52
2022/12/12 10:15:27;;;;;;;4.60;4.17;;;-0.20;99.90;;;;;;5231754;28;20441;-52
2022/12/12 10:18:02;;;;;;;4.37;4.07;;;-0.20;99.90;;;;;;5230956;28;20541;-49
2022/12/12 10:20:39;;;;;;;4.70;3.80;;;0.00;99.90;;;;;;5228151;28;20505;-52
2022/12/12 10:23:17;;;;;;;7.00;4.40;;;-0.10;99.90;;;;;;5230588;28;20440;-53
2022/12/12 10:26:01;;;;;;;4.63;4.23;;;0.10;99.90;;;;;;5236981;28;20534;-51
2022/12/12 10:28:33;;;;;;;4.27;3.90;;;0.30;99.90;;;;;;5239104;28;20911;-51
2022/12/12 10:31:27;;;;;;;3.93;3.60;;;0.30;99.90;;;;;;5241380;28;20470;-52
2022/12/12 10:34:24;;;;;;;4.07;3.80;;;0.30;99.90;;;;;;5227714;28;20453;-51
2022/12/12 10:37:14;;;;;;;3.27;3.17;;;0.30;99.90;;;;;;5197128;28;20466;-50
2022/12/12 10:39:59;;;;;;;4.23;3.10;;;0.30;99.90;;;;;;5223749;28;21202;-51
2022/12/12 10:43:02;;;;;;;3.30;3.10;;;0.20;99.90;;;;;;5224799;28;20460;-53
2022/12/12 10:45:57;;;;;;;3.33;3.13;;;0.20;99.90;;;;;;5222837;28;20478;-49
2022/12/12 10:48:28;;;;;;;3.00;2.90;;;0.20;99.90;;;;;;5226823;28;20469;-51
2022/12/12 10:51:12;;;;;;;3.70;3.50;;;0.00;99.90;;;;;;5226646;28;20471;-51
2022/12/12 10:53:43;;;;;;;4.30;3.90;;;-0.10;99.90;;;;;;5231822;28;20467;-51
2022/12/12 10:56:27;;;;;;;3.40;3.20;;;-0.10;99.90;;;;;;5242729;28;20468;-53
2022/12/12 10:59:00;;;;;;;4.07;3.57;;;-0.10;99.90;;;;;;5223661;28;20937;-51
2022/12/12 11:01:39;;;;;;;7.03;4.37;;;-0.10;99.90;;;;;;5223387;28;20459;-50
2022/12/12 11:04:13;;;;;;;3.30;3.00;;;-0.30;99.90;;;;;;5228429;28;20524;-51
2022/12/12 11:06:50;;;;;;;4.20;3.30;;;-0.20;99.90;;;;;;5211595;28;20440;-50
2022/12/12 11:09:24;;;;;;;2.63;2.53;;;-0.10;99.90;;;;;;5232978;28;20494;-52
2022/12/12 11:11:59;;;;;;;8.70;3.73;;;0.00;99.90;;;;;;5241780;28;20459;-53
2022/12/12 11:14:36;;;;;;;3.83;3.60;;;0.00;99.90;;;;;;5236275;28;20901;-53
2022/12/12 11:17:26;;;;;;;7.17;3.70;;;0.10;99.90;;;;;;5233717;28;20472;-52
2022/12/12 11:19:59;;;;;;;5.20;4.13;;;0.10;99.90;;;;;;5234792;28;20430;-50
2022/12/12 11:22:32;;;;;;;6.60;4.33;;;0.00;99.90;;;;;;5234454;28;20951;-50
2022/12/12 11:25:03;;;;;;;4.40;4.10;;;0.10;99.90;;;;;;5232994;28;20439;-50
2022/12/12 11:27:38;;;;;;;5.30;4.43;;;0.10;99.90;;;;;;5237763;28;21091;-50
2022/12/12 11:30:36;;;;;;;8.87;5.63;;;0.20;99.90;;;;;;5229842;28;20450;-48
2022/12/12 11:33:14;;;;;;;4.93;4.53;;;0.20;99.90;;;;;;5238263;28;20517;-52
2022/12/12 11:35:45;;;;;;;5.13;4.67;;;0.30;99.90;;;;;;5231551;28;20490;-50
2022/12/12 11:38:23;;;;;;;4.57;4.00;;;0.50;99.90;;;;;;5226237;28;20464;-50
2022/12/12 11:41:03;;;;;;;4.33;4.00;;;0.50;99.90;;;;;;5232815;28;20280;-51
2022/12/12 11:43:53;;;;;;;5.23;4.80;;;0.50;99.90;;;;;;5236870;28;20497;-54
2022/12/12 11:46:29;;;;;;;5.30;4.83;;;0.80;99.90;;;;;;5240112;28;20440;-54
2022/12/12 11:49:04;;;;;;;4.43;4.13;;;0.90;99.90;;;;;;5240457;28;20444;-51
2022/12/12 11:51:40;;;;;;;4.70;4.30;;;0.90;99.90;;;;;;5236088;28;20463;-52
2022/12/12 11:54:12;;;;;;;5.43;4.90;;;0.70;99.90;;;;;;5236354;28;20440;-48
2022/12/12 11:57:10;;;;;;;5.10;4.60;;;0.70;99.90;;;;;;5244441;28;20809;-52
2022/12/12 12:00:04;;;;;;;5.30;4.90;;;0.60;99.90;;;;;;5239609;28;20428;-52
2022/12/12 12:02:47;;;;;;;6.40;4.57;;;0.60;99.90;;;;;;5233110;28;20432;-52
2022/12/12 12:05:24;;;;;;;5.73;5.10;;;0.50;99.90;;;;;;5238791;28;20523;-51
2022/12/12 12:08:16;;;;;;;5.23;4.73;;;0.30;99.90;;;;;;5236466;28;20443;-52
2022/12/12 12:11:21;;;;;;;5.27;4.87;;;0.30;99.90;;;;;;5232583;28;20467;-51
2022/12/12 12:14:09;;;;;;;8.70;6.43;;;0.40;99.90;;;;;;5245878;28;20471;-53
2022/12/12 12:17:21;;;;;;;8.63;6.07;;;0.30;99.90;;;;;;5234204;28;20446;-53
2022/12/12 12:19:58;;;;;;;9.77;5.77;;;0.30;99.90;;;;;;5180486;28;20471;-52
2022/12/12 12:22:37;;;;;;;6.97;6.17;;;0.20;99.90;;;;;;5224280;28;20461;-51
2022/12/12 12:25:20;;;;;;;7.33;6.00;;;0.20;99.90;;;;;;5240327;28;20433;-52
2022/12/12 12:28:29;;;;;;;7.93;6.20;;;0.00;99.90;;;;;;5237616;28;20816;-49
2022/12/12 12:31:03;;;;;;;7.53;5.80;;;-0.10;99.90;;;;;;5235323;28;20464;-52
2022/12/12 12:33:49;;;;;;;5.80;5.20;;;-0.20;99.90;;;;;;5235135;28;20436;-52
2022/12/12 12:36:29;;;;;;;7.07;4.70;;;-0.10;99.90;;;;;;5240844;28;20469;-52
2022/12/12 12:39:09;;;;;;;4.90;4.50;;;-0.10;99.90;;;;;;5240160;28;20438;-49
2022/12/12 12:41:48;;;;;;;5.03;4.00;;;-0.10;99.90;;;;;;5237891;28;20900;-52
2022/12/12 12:44:50;;;;;;;4.17;3.87;;;-0.10;99.90;;;;;;5237001;28;20445;-50
2022/12/12 12:47:43;;;;;;;3.33;3.13;;;-0.20;99.90;;;;;;5234916;28;20805;-53
2022/12/12 12:50:16;;;;;;;4.43;4.03;;;-0.40;99.90;;;;;;5236769;28;20454;-53
2022/12/12 12:53:23;;;;;;;4.63;4.23;;;-0.10;99.90;;;;;;5237356;28;20450;-51
2022/12/12 12:55:58;;;;;;;4.33;3.87;;;-0.10;99.90;;;;;;5237691;28;20442;-52
2022/12/12 12:58:38;;;;;;;4.70;3.70;;;-0.30;99.90;;;;;;5239174;28;21124;-51
2022/12/12 13:01:13;;;;;;;4.47;4.17;;;-0.30;99.90;;;;;;5236611;28;20469;-53
2022/12/12 13:03:57;;;;;;;5.47;3.90;;;-0.40;99.90;;;;;;5234309;28;20449;-53
2022/12/12 13:06:36;;;;;;;4.33;3.50;;;-0.40;99.90;;;;;;5235617;28;20552;-54
2022/12/12 13:09:23;;;;;;;4.10;3.70;;;-0.50;99.90;;;;;;5239336;28;20469;-52
2022/12/12 13:12:02;;;;;;;4.53;3.20;;;-0.50;99.90;;;;;;5236003;28;20536;-55
2022/12/12 13:14:46;;;;;;;8.53;4.40;;;-0.40;99.90;;;;;;5238969;28;20571;-52
2022/12/12 13:17:22;;;;;;;6.33;4.17;;;-0.40;99.90;;;;;;5242780;28;20950;-52
2022/12/12 13:19:56;;;;;;;7.93;5.10;;;-0.40;99.90;;;;;;5243022;28;20451;-51
2022/12/12 13:22:45;;;;;;;4.03;3.73;;;-0.40;99.90;;;;;;5240138;28;20441;-52
2022/12/12 13:25:35;;;;;;;4.53;4.17;;;-0.30;99.90;;;;;;5236637;28;20470;-54
2022/12/12 13:28:14;;;;;;;4.73;4.07;;;-0.30;99.90;;;;;;5237811;28;20789;-52
2022/12/12 13:31:01;;;;;;;5.10;4.63;;;-0.40;99.90;;;;;;5238046;28;20554;-51
2022/12/12 13:33:51;;;;;;;6.50;4.00;;;-0.40;99.90;;;;;;5241353;28;20436;-52
2022/12/12 13:36:27;;;;;;;4.33;3.53;;;-0.40;99.90;;;;;;5236766;28;20455;-53
2022/12/12 13:39:00;;;;;;;4.70;4.10;;;-0.40;99.90;;;;;;5242496;28;20465;-51
2022/12/12 13:42:01;;;;;;;4.57;3.80;;;-0.40;99.90;;;;;;5237240;28;20513;-52
2022/12/12 13:44:46;;;;;;;6.13;4.60;;;-0.40;99.90;;;;;;5235298;28;20495;-53
2022/12/12 13:47:17;;;;;;;9.30;3.60;;;-0.40;99.90;;;;;;5236463;28;20472;-52